createdAt,value
2023-05-19T00:00:07.381Z,1.04
2023-05-19T00:01:06.920Z,1.04
2023-05-19T00:02:07.083Z,1.04
2023-05-19T00:03:07.332Z,1.04
2023-05-19T00:04:07.366Z,1.04
2023-05-19T00:05:07.501Z,1.04
2023-05-19T00:06:07.743Z,1.04
2023-05-19T00:07:07.752Z,1.04
2023-05-19T00:08:07.933Z,1.04
2023-05-19T00:09:08.064Z,1.04
2023-05-19T00:10:08.201Z,1.04
2023-05-19T00:11:08.249Z,1.04
2023-05-19T00:12:08.348Z,1.04
2023-05-19T00:13:08.558Z,1.04
2023-05-19T00:14:08.602Z,1.04
2023-05-19T00:15:08.703Z,1.04
2023-05-19T00:16:08.933Z,1.04
2023-05-19T00:17:08.994Z,1.04
2023-05-19T00:18:09.280Z,1.04
2023-05-19T00:19:09.296Z,1.04
2023-05-19T00:20:09.404Z,1.04
2023-05-19T00:21:09.558Z,1.04
2023-05-19T00:22:09.718Z,1.04
2023-05-19T00:23:09.920Z,1.04
2023-05-19T00:24:10.049Z,1.04
2023-05-19T00:25:10.203Z,1.04
2023-05-19T00:26:10.352Z,1.04
2023-05-19T00:27:10.494Z,1.04
2023-05-19T00:28:10.655Z,1.04
2023-05-19T00:29:10.801Z,1.04
2023-05-19T00:30:11.419Z,1.04
2023-05-19T00:32:11.299Z,1.04
2023-05-19T00:33:11.435Z,1.04
2023-05-19T00:34:11.553Z,1.04
2023-05-19T00:35:11.716Z,1.04
2023-05-19T00:36:11.868Z,1.04
2023-05-19T00:37:12.013Z,1.04
2023-05-19T00:38:12.191Z,1.04
2023-05-19T00:39:12.308Z,1.04
2023-05-19T00:40:12.455Z,1.04
2023-05-19T00:41:12.653Z,1.04
2023-05-19T00:42:12.770Z,1.04
2023-05-19T00:43:12.918Z,1.04
2023-05-19T00:44:13.066Z,1.04
2023-05-19T00:45:13.657Z,1.04
2023-05-19T00:46:13.489Z,1.04
2023-05-19T00:47:13.481Z,1.04
2023-05-19T00:48:13.641Z,1.04
2023-05-19T00:49:13.787Z,1.04
2023-05-19T00:50:13.936Z,1.04
2023-05-19T00:51:14.079Z,1.04
2023-05-19T00:52:14.262Z,1.04
2023-05-19T00:53:14.413Z,1.04
2023-05-19T00:54:14.538Z,1.04
2023-05-19T00:55:14.704Z,1.04
2023-05-19T00:56:14.846Z,1.04
2023-05-19T00:57:14.917Z,1.04
2023-05-19T00:58:15.065Z,1.04
2023-05-19T00:59:15.181Z,1.04
2023-05-19T01:00:15.832Z,1.04
2023-05-19T01:01:15.503Z,1.04
2023-05-19T01:02:15.558Z,1.04
2023-05-19T01:03:15.734Z,1.04
2023-05-19T01:04:15.851Z,1.04
2023-05-19T01:05:16.032Z,1.04
2023-05-19T01:06:16.156Z,1.04
2023-05-19T01:07:16.268Z,1.04
2023-05-19T01:08:16.442Z,1.04
2023-05-19T01:09:16.563Z,1.04
2023-05-19T01:10:16.720Z,1.04
2023-05-19T01:11:16.866Z,1.04
2023-05-19T01:12:17.052Z,1.04
2023-05-19T01:13:17.167Z,1.04
2023-05-19T01:14:17.356Z,1.04
2023-05-19T01:15:18.025Z,1.04
2023-05-19T01:16:17.658Z,1.04
2023-05-19T01:17:17.724Z,1.04
2023-05-19T01:18:17.856Z,1.04
2023-05-19T01:19:18.001Z,1.04
2023-05-19T01:20:18.113Z,1.04
2023-05-19T01:21:18.296Z,1.04
2023-05-19T01:22:18.384Z,1.04
2023-05-19T01:23:18.550Z,1.04
2023-05-19T01:24:18.650Z,1.04
2023-05-19T01:25:18.817Z,1.04
2023-05-19T01:26:18.941Z,1.04
2023-05-19T01:27:19.101Z,1.04
2023-05-19T01:28:19.245Z,1.04
2023-05-19T01:29:19.391Z,1.04
2023-05-19T01:30:19.994Z,1.04
2023-05-19T01:31:19.700Z,1.04
2023-05-19T01:32:19.749Z,1.04
2023-05-19T01:33:19.917Z,1.04
2023-05-19T01:34:20.063Z,1.04
2023-05-19T01:35:20.230Z,1.04
2023-05-19T01:36:20.329Z,1.04
2023-05-19T01:37:20.458Z,1.04
2023-05-19T01:38:20.588Z,1.04
2023-05-19T01:39:20.786Z,1.04
2023-05-19T01:40:20.872Z,1.04
2023-05-19T01:41:21.006Z,1.04
2023-05-19T01:42:21.098Z,1.04
2023-05-19T01:43:21.258Z,1.04
2023-05-19T01:44:21.378Z,1.04
2023-05-19T01:45:22.065Z,1.04
2023-05-19T01:46:21.660Z,1.04
2023-05-19T01:47:21.744Z,1.04
2023-05-19T01:48:21.893Z,1.04
2023-05-19T01:49:22.038Z,1.04
2023-05-19T01:50:22.157Z,1.04
2023-05-19T01:51:22.314Z,1.04
2023-05-19T01:52:22.454Z,1.04
2023-05-19T01:53:22.600Z,1.04
2023-05-19T01:54:22.766Z,1.04
2023-05-19T01:55:22.911Z,1.04
2023-05-19T01:56:23.058Z,1.04
2023-05-19T01:57:23.195Z,1.04
2023-05-19T01:58:23.341Z,1.04
2023-05-19T01:59:24.300Z,1.04
2023-05-19T02:00:23.615Z,1.04
2023-05-19T02:01:23.807Z,1.04
2023-05-19T02:02:23.974Z,1.04
2023-05-19T02:03:24.093Z,1.04
2023-05-19T02:04:24.212Z,1.04
2023-05-19T02:05:24.314Z,1.04
2023-05-19T02:06:24.437Z,1.04
2023-05-19T02:07:24.521Z,1.04
2023-05-19T02:08:24.729Z,1.04
2023-05-19T02:09:24.744Z,1.04
2023-05-19T02:10:24.938Z,1.04
2023-05-19T02:11:25.073Z,1.04
2023-05-19T02:12:25.216Z,1.04
2023-05-19T02:13:25.378Z,1.04
2023-05-19T02:14:26.035Z,1.04
2023-05-19T02:15:25.659Z,1.04
2023-05-19T02:16:25.885Z,1.04
2023-05-19T02:17:26.275Z,1.04
2023-05-19T02:18:26.038Z,1.04
2023-05-19T02:19:26.646Z,1.04
2023-05-19T02:20:26.292Z,1.04
2023-05-19T02:21:26.485Z,1.04
2023-05-19T02:22:26.551Z,1.04
2023-05-19T02:23:26.975Z,1.04
2023-05-19T02:24:27.132Z,1.04
2023-05-19T02:25:26.969Z,1.04
2023-05-19T02:26:27.091Z,1.04
2023-05-19T02:27:27.242Z,1.04
2023-05-19T02:28:27.399Z,1.04
2023-05-19T02:29:27.965Z,1.04
2023-05-19T02:30:27.988Z,1.04
2023-05-19T02:31:28.139Z,1.04
2023-05-19T02:32:28.274Z,2
2023-05-19T02:33:28.123Z,2
2023-05-19T02:34:28.339Z,2
2023-05-19T02:35:28.358Z,2
2023-05-19T02:36:28.471Z,2
2023-05-19T02:37:28.716Z,3.04
2023-05-19T02:38:28.717Z,3.04
2023-05-19T02:39:28.868Z,3.04
2023-05-19T02:40:29.011Z,4
2023-05-19T02:41:29.175Z,4
2023-05-19T02:42:29.345Z,5.04
2023-05-19T02:43:29.462Z,5.04
2023-05-19T02:44:30.071Z,6
2023-05-19T02:45:29.732Z,7.04
2023-05-19T02:46:29.885Z,8
2023-05-19T02:47:30.031Z,9.04
2023-05-19T02:48:30.122Z,10
2023-05-19T02:49:30.319Z,12
2023-05-19T02:50:30.553Z,14
2023-05-19T02:51:30.538Z,16
2023-05-19T02:52:30.695Z,19.04
2023-05-19T02:53:30.795Z,22
2023-05-19T02:54:30.952Z,26
2023-05-19T02:55:31.136Z,30
2023-05-19T02:56:31.233Z,34
2023-05-19T02:57:31.377Z,39.04
2023-05-19T02:58:31.536Z,44
2023-05-19T02:59:32.452Z,50
2023-05-19T03:00:32.013Z,57.04
2023-05-19T03:01:32.023Z,65.04
2023-05-19T03:02:32.161Z,99.04
2023-05-19T03:03:32.178Z,109.04
2023-05-19T03:04:32.301Z,124
2023-05-19T03:05:32.441Z,136
2023-05-19T03:06:32.554Z,152
2023-05-19T03:07:32.747Z,166.08
2023-05-19T03:08:32.813Z,182.08
2023-05-19T03:09:32.960Z,204
2023-05-19T03:10:33.327Z,222.08
2023-05-19T03:11:33.223Z,245.12
2023-05-19T03:12:33.385Z,263.04
2023-05-19T03:13:33.552Z,281.12
2023-05-19T03:14:34.157Z,297.12
2023-05-19T03:15:33.802Z,318.08
2023-05-19T03:16:33.917Z,333.12
2023-05-19T03:17:34.077Z,352
2023-05-19T03:18:34.138Z,370.24
2023-05-19T03:19:34.278Z,387.2
2023-05-19T03:20:34.541Z,408
2023-05-19T03:21:34.581Z,428.16
2023-05-19T03:22:34.760Z,449.28
2023-05-19T03:23:34.891Z,479.04
2023-05-19T03:24:35.028Z,504
2023-05-19T03:25:35.188Z,535.04
2023-05-19T03:26:35.363Z,576
2023-05-19T03:27:35.508Z,612.16
2023-05-19T03:28:35.657Z,647.04
2023-05-19T03:29:36.305Z,680.32
2023-05-19T03:30:35.990Z,726.4
2023-05-19T03:31:36.101Z,762.24
2023-05-19T03:32:36.354Z,795.52
2023-05-19T03:33:36.453Z,831.36
2023-05-19T03:34:36.561Z,878.08
2023-05-19T03:35:36.725Z,918.4
2023-05-19T03:36:36.861Z,953.6
2023-05-19T03:37:37.017Z,989.44
2023-05-19T03:38:37.169Z,1030.4
2023-05-19T03:39:37.288Z,1083.52
2023-05-19T03:40:37.439Z,1132.16
2023-05-19T03:41:37.613Z,1186.56
2023-05-19T03:42:37.717Z,1267.2
2023-05-19T03:43:37.905Z,1410.56
2023-05-19T03:44:38.567Z,1519.36
2023-05-19T03:45:38.166Z,1662.72
2023-05-19T03:46:38.247Z,1757.44
2023-05-19T03:47:38.412Z,1834.24
2023-05-19T03:48:38.538Z,1934.08
2023-05-19T03:49:38.687Z,2008.32
2023-05-19T03:50:38.897Z,2080
2023-05-19T03:51:38.960Z,2163.2
2023-05-19T03:52:39.096Z,2241.28
2023-05-19T03:53:39.241Z,2321.92
2023-05-19T03:54:39.394Z,2383.36
2023-05-19T03:55:39.551Z,2455.04
2023-05-19T03:56:39.719Z,2539.52
2023-05-19T03:57:39.827Z,2602.24
2023-05-19T03:58:39.969Z,2664.96
2023-05-19T03:59:40.599Z,2728.96
2023-05-19T04:00:40.240Z,2775.04
2023-05-19T04:01:40.346Z,2803.2
2023-05-19T04:02:40.577Z,2826.24
2023-05-19T04:03:40.649Z,2851.84
2023-05-19T04:04:40.827Z,2900.48
2023-05-19T04:05:40.925Z,2961.92
2023-05-19T04:06:41.054Z,3054.08
2023-05-19T04:07:41.203Z,3156.48
2023-05-19T04:08:41.328Z,3276.8
2023-05-19T04:09:41.529Z,3425.28
2023-05-19T04:10:41.617Z,3563.52
2023-05-19T04:11:41.801Z,3735.04
2023-05-19T04:12:41.941Z,3973.12
2023-05-19T04:13:42.082Z,4206.08
2023-05-19T04:14:42.784Z,5713.92
2023-05-19T04:15:42.368Z,4723.2
2023-05-19T04:16:42.488Z,6077.44
2023-05-19T04:17:42.668Z,5253.12
2023-05-19T04:18:42.837Z,5570.56
2023-05-19T04:19:42.907Z,6021.12
2023-05-19T04:20:43.062Z,6364.16
2023-05-19T04:21:43.191Z,6732.8
2023-05-19T04:22:43.288Z,7060.48
2023-05-19T04:23:43.385Z,7454.72
2023-05-19T04:24:43.558Z,7910.4
2023-05-19T04:25:43.695Z,8268.8
2023-05-19T04:26:43.836Z,8519.68
2023-05-19T04:27:44.006Z,8908.8
2023-05-19T04:28:44.126Z,9016.319
2023-05-19T04:29:44.845Z,9221.12
2023-05-19T04:30:44.404Z,9461.76
2023-05-19T04:31:44.580Z,9768.96
2023-05-19T04:32:44.833Z,10224.64
2023-05-19T04:33:44.854Z,10639.359
2023-05-19T04:34:44.965Z,11048.96
2023-05-19T04:35:45.103Z,11376.64
2023-05-19T04:36:45.264Z,11704.319
2023-05-19T04:37:45.423Z,12113.92
2023-05-19T04:38:45.574Z,12380.16
2023-05-19T04:39:45.754Z,12544
2023-05-19T04:40:45.814Z,12789.76
2023-05-19T04:41:45.904Z,12974.08
2023-05-19T04:42:46.244Z,13916.16
2023-05-19T04:43:46.244Z,14243.84
2023-05-19T04:44:46.373Z,19302.4
2023-05-19T04:45:46.470Z,18534.4
2023-05-19T04:46:46.692Z,16537.6
2023-05-19T04:47:46.790Z,24043.52
2023-05-19T04:48:46.962Z,25047.04
2023-05-19T04:49:47.031Z,15656.96
2023-05-19T04:50:47.188Z,16035.84
2023-05-19T04:51:47.338Z,32911.36
2023-05-19T04:52:47.515Z,14807.04
2023-05-19T04:53:47.633Z,14039.04
2023-05-19T04:54:47.786Z,14295.04
2023-05-19T04:55:47.903Z,14397.439
2023-05-19T04:56:48.071Z,14120.96
2023-05-19T04:57:48.190Z,13434.88
2023-05-19T04:58:48.360Z,12912.64
2023-05-19T04:59:48.493Z,12492.8
2023-05-19T05:00:48.652Z,12257.279
2023-05-19T05:01:48.865Z,12062.72
2023-05-19T05:02:49.025Z,11642.88
2023-05-19T05:03:49.091Z,11560.96
2023-05-19T05:04:49.242Z,11601.92
2023-05-19T05:05:49.367Z,11755.52
2023-05-19T05:06:49.512Z,11909.12
2023-05-19T05:07:49.639Z,12032
2023-05-19T05:08:49.807Z,12103.68
2023-05-19T05:09:49.974Z,12154.88
2023-05-19T05:10:50.132Z,12236.8
2023-05-19T05:11:50.267Z,12410.88
2023-05-19T05:12:50.426Z,12738.56
2023-05-19T05:13:50.587Z,12963.84
2023-05-19T05:14:51.160Z,14243.84
2023-05-19T05:15:50.854Z,14704.64
2023-05-19T05:16:51.052Z,15063.04
2023-05-19T05:17:51.126Z,15411.199
2023-05-19T05:18:51.311Z,15544.319
2023-05-19T05:19:51.385Z,15544.319
2023-05-19T05:20:51.550Z,15400.96
2023-05-19T05:21:52.272Z,15104
2023-05-19T05:22:51.837Z,14714.88
2023-05-19T05:23:52.004Z,14469.12
2023-05-19T05:24:52.102Z,14274.56
2023-05-19T05:25:52.233Z,14192.64
2023-05-19T05:26:52.352Z,14571.52
2023-05-19T05:27:52.492Z,14561.279
2023-05-19T05:28:52.629Z,14725.12
2023-05-19T05:29:53.219Z,15196.159
2023-05-19T05:30:52.915Z,16435.2
2023-05-19T05:31:53.051Z,20008.96
2023-05-19T05:32:53.374Z,18104.32
2023-05-19T05:33:53.343Z,18196.48
2023-05-19T05:34:53.530Z,18831.36
2023-05-19T05:35:53.645Z,20008.96
2023-05-19T05:36:53.811Z,20316.16
2023-05-19T05:37:53.975Z,20684.8
2023-05-19T05:38:54.109Z,21831.68
2023-05-19T05:39:54.271Z,23429.12
2023-05-19T05:40:54.390Z,23183.36
2023-05-19T05:41:54.517Z,22712.32
2023-05-19T05:42:54.592Z,22466.56
2023-05-19T05:43:54.706Z,22302.72
2023-05-19T05:44:54.848Z,22016
2023-05-19T05:45:55.010Z,21934.08
2023-05-19T05:46:55.186Z,22118.4
2023-05-19T05:47:55.315Z,22630.4
2023-05-19T05:48:55.445Z,23326.72
2023-05-19T05:49:55.600Z,29184
2023-05-19T05:50:55.748Z,21565.44
2023-05-19T05:52:05.416Z,20480
2023-05-19T05:52:56.091Z,20152.32
2023-05-19T05:53:56.221Z,20643.84
2023-05-19T05:54:56.338Z,20592.64
2023-05-19T05:55:56.501Z,21114.88
2023-05-19T05:56:56.641Z,20879.36
2023-05-19T05:57:56.805Z,20602.88
2023-05-19T05:58:56.943Z,20541.44
2023-05-19T05:59:57.658Z,20561.92
2023-05-19T06:00:57.274Z,20500.48
2023-05-19T06:01:57.410Z,19537.92
2023-05-19T06:02:57.602Z,18749.44
2023-05-19T06:03:57.668Z,17674.24
2023-05-19T06:04:57.777Z,17213.44
2023-05-19T06:05:58.007Z,16936.96
2023-05-19T06:06:58.053Z,16640
2023-05-19T06:07:58.225Z,16445.44
2023-05-19T06:08:58.378Z,16578.56
2023-05-19T06:09:58.533Z,16762.88
2023-05-19T06:10:58.699Z,15769.6
2023-05-19T06:11:58.826Z,15298.56
2023-05-19T06:12:58.920Z,15196.159
2023-05-19T06:13:59.067Z,15298.56
2023-05-19T06:14:59.727Z,15441.92
2023-05-19T06:16:01.813Z,15687.68
2023-05-19T06:16:59.537Z,15964.159
2023-05-19T06:17:59.753Z,16087.04
2023-05-19T06:18:59.850Z,16199.68
2023-05-19T06:19:59.929Z,16271.359
2023-05-19T06:21:00.063Z,16414.72
2023-05-19T06:22:00.207Z,16742.4
2023-05-19T06:23:00.289Z,17018.88
2023-05-19T06:24:00.443Z,17438.72
2023-05-19T06:25:00.620Z,18288.64
2023-05-19T06:26:00.737Z,19712
2023-05-19T06:27:00.915Z,18831.36
2023-05-19T06:28:01.059Z,18944
2023-05-19T06:29:01.197Z,19681.28
2023-05-19T06:30:01.889Z,22200.32
2023-05-19T06:31:01.528Z,24965.12
2023-05-19T06:32:01.645Z,28405.76
2023-05-19T06:33:01.852Z,30760.96
2023-05-19T06:34:01.961Z,33177.6
2023-05-19T06:35:02.118Z,35266.56
2023-05-19T06:36:02.274Z,37703.68
2023-05-19T06:37:02.593Z,37130.24
2023-05-19T06:38:02.578Z,35102.72
2023-05-19T06:39:02.966Z,34508.8
2023-05-19T06:40:02.865Z,34160.64
2023-05-19T06:41:03.032Z,33116.16
2023-05-19T06:42:03.185Z,33075.2
2023-05-19T06:43:03.324Z,32153.6
2023-05-19T06:44:03.466Z,31027.2
2023-05-19T06:45:04.107Z,30371.84
2023-05-19T06:46:03.800Z,30904.32
2023-05-19T06:47:03.955Z,30064.64
2023-05-19T06:48:04.072Z,30433.28
2023-05-19T06:49:04.233Z,31191.04
2023-05-19T06:50:04.291Z,31866.88
2023-05-19T06:51:04.440Z,32501.76
2023-05-19T06:52:04.588Z,32808.96
2023-05-19T06:53:04.755Z,33095.68
2023-05-19T06:54:04.909Z,32972.8
2023-05-19T06:55:05.056Z,32624.64
2023-05-19T06:56:05.154Z,32419.84
2023-05-19T06:57:05.287Z,32542.72
2023-05-19T06:58:05.441Z,32727.04
2023-05-19T06:59:05.600Z,33607.68
2023-05-19T07:00:05.686Z,35246.08
2023-05-19T07:01:05.831Z,35184.64
2023-05-19T07:02:06.036Z,35389.44
2023-05-19T07:03:06.212Z,35532.8
2023-05-19T07:04:06.334Z,35491.84
2023-05-19T07:05:06.443Z,35041.28
2023-05-19T07:06:08.021Z,34713.6
2023-05-19T07:07:06.757Z,34611.2
2023-05-19T07:08:06.895Z,34979.84
2023-05-19T07:09:07.072Z,35512.32
2023-05-19T07:10:07.175Z,36741.12
2023-05-19T07:11:07.331Z,37171.2
2023-05-19T07:12:07.487Z,38379.52
2023-05-19T07:13:07.625Z,39403.52
2023-05-19T07:14:07.739Z,40386.56
2023-05-19T07:15:08.372Z,41492.48
2023-05-19T07:16:08.117Z,44769.28
2023-05-19T07:17:08.136Z,59269.12
2023-05-19T07:18:08.336Z,52797.44
2023-05-19T07:19:08.474Z,70082.56
2023-05-19T07:20:08.585Z,69959.68
2023-05-19T07:21:08.750Z,89128.96
2023-05-19T07:22:08.867Z,117309.44
2023-05-19T07:23:08.982Z,125992.96
2023-05-19T07:24:09.141Z,91258.88
2023-05-19T07:25:09.292Z,71802.88
2023-05-19T07:26:09.446Z,114524.16
2023-05-19T07:27:09.609Z,112312.32
2023-05-19T07:28:09.769Z,110100.48
2023-05-19T07:29:09.856Z,109690.88
2023-05-19T07:30:10.400Z,106987.52
2023-05-19T07:31:10.131Z,103710.72
2023-05-19T07:32:10.275Z,102891.52
2023-05-19T07:33:10.458Z,105349.12
2023-05-19T07:34:10.501Z,93552.64
2023-05-19T07:35:10.669Z,86261.76
2023-05-19T07:36:10.815Z,71393.28
2023-05-19T07:37:10.921Z,70000.64
2023-05-19T07:38:11.067Z,78929.92
2023-05-19T07:39:11.350Z,62586.88
2023-05-19T07:40:11.368Z,87572.48
2023-05-19T07:41:11.551Z,73564.16
2023-05-19T07:42:11.671Z,94453.76
2023-05-19T07:43:11.820Z,73932.8
2023-05-19T07:44:11.925Z,58695.68
2023-05-19T07:45:12.514Z,94781.44
2023-05-19T07:46:12.246Z,77291.52
2023-05-19T07:47:12.384Z,83845.12
2023-05-19T07:48:12.596Z,53002.24
2023-05-19T07:49:12.681Z,112230.4
2023-05-19T07:50:12.837Z,115589.12
2023-05-19T07:51:13.012Z,114933.76
2023-05-19T07:52:13.144Z,113459.2
2023-05-19T07:53:13.278Z,110919.68
2023-05-19T07:54:13.381Z,111329.28
2023-05-19T07:55:13.568Z,110264.32
2023-05-19T07:56:13.695Z,110346.23
2023-05-19T07:57:13.845Z,107479.04
2023-05-19T07:58:13.988Z,77742.08
2023-05-19T07:59:14.091Z,74178.56
2023-05-19T08:00:14.736Z,89456.64
2023-05-19T08:01:14.371Z,83271.68
2023-05-19T08:02:14.514Z,94044.16
2023-05-19T08:03:14.797Z,98631.68
2023-05-19T08:04:14.780Z,76963.84
2023-05-19T08:05:14.867Z,61890.56
2023-05-19T08:06:15.002Z,75530.24
2023-05-19T08:07:15.166Z,80158.72
2023-05-19T08:08:15.306Z,96174.08
2023-05-19T08:09:15.456Z,104038.4
2023-05-19T08:10:15.569Z,103219.2
2023-05-19T08:11:15.710Z,101007.36
2023-05-19T08:12:15.876Z,81305.6
2023-05-19T08:13:16.027Z,88473.6
2023-05-19T08:14:16.189Z,88064
2023-05-19T08:15:16.911Z,93224.96
2023-05-19T08:16:16.593Z,97402.88
2023-05-19T08:17:16.595Z,98058.23
2023-05-19T08:18:16.737Z,92241.91
2023-05-19T08:19:16.940Z,88309.76
2023-05-19T08:20:16.993Z,93962.23
2023-05-19T08:21:17.124Z,95846.4
2023-05-19T08:22:17.296Z,95928.32
2023-05-19T08:23:17.471Z,98222.08
2023-05-19T08:24:17.585Z,97812.48
2023-05-19T08:25:17.746Z,98222.08
2023-05-19T08:26:17.907Z,98304
2023-05-19T08:27:18.050Z,98631.68
2023-05-19T08:28:18.201Z,99368.96
2023-05-19T08:29:18.357Z,100270.08
2023-05-19T08:30:19.058Z,100433.91
2023-05-19T08:31:18.687Z,99614.72
2023-05-19T08:32:18.806Z,104529.91
2023-05-19T08:33:18.959Z,81674.24
2023-05-19T08:34:19.120Z,76062.72
2023-05-19T08:35:19.272Z,69263.36
2023-05-19T08:36:19.416Z,64184.32
2023-05-19T08:37:19.556Z,62259.2
2023-05-19T08:38:19.707Z,68935.68
2023-05-19T08:39:19.870Z,66068.48
2023-05-19T08:40:20.006Z,50872.32
2023-05-19T08:41:20.177Z,47964.16
2023-05-19T08:42:20.332Z,43991.04
2023-05-19T08:43:20.476Z,38543.36
2023-05-19T08:44:20.617Z,30760.96
2023-05-19T08:45:21.334Z,31395.84
2023-05-19T08:46:20.980Z,36864
2023-05-19T08:47:21.089Z,62177.28
2023-05-19T08:48:21.228Z,55951.36
2023-05-19T08:49:22.218Z,49848.32
2023-05-19T08:50:21.441Z,50585.6
2023-05-19T08:51:21.545Z,50790.4
2023-05-19T08:52:21.688Z,53288.96
2023-05-19T08:53:32.940Z,60293.12
2023-05-19T08:54:21.983Z,56565.76
2023-05-19T08:55:22.095Z,69304.32
2023-05-19T08:56:22.257Z,75284.48
2023-05-19T08:57:22.404Z,61440
2023-05-19T08:58:22.544Z,62136.32
2023-05-19T08:59:22.706Z,74792.96
2023-05-19T09:00:22.959Z,113131.52
2023-05-19T09:01:23.039Z,101580.8
2023-05-19T09:02:23.175Z,113868.8
2023-05-19T09:03:23.846Z,110346.23
2023-05-19T09:04:23.453Z,108707.84
2023-05-19T09:05:23.570Z,105758.72
2023-05-19T09:06:23.659Z,103546.88
2023-05-19T09:07:23.817Z,103628.8
2023-05-19T09:08:23.948Z,101171.2
2023-05-19T09:09:24.057Z,102072.32
2023-05-19T09:10:24.206Z,96911.36
2023-05-19T09:11:24.373Z,94617.6
2023-05-19T09:12:24.538Z,93552.64
2023-05-19T09:13:24.670Z,95027.2
2023-05-19T09:14:25.332Z,98385.91
2023-05-19T09:15:24.981Z,94453.76
2023-05-19T09:16:25.953Z,101171.2
2023-05-19T09:17:25.365Z,100515.84
2023-05-19T09:18:25.373Z,82944
2023-05-19T09:19:25.669Z,99123.2
2023-05-19T09:20:25.685Z,95272.96
2023-05-19T09:21:25.879Z,93470.72
2023-05-19T09:22:26.010Z,90849.28
2023-05-19T09:23:26.130Z,86179.84
2023-05-19T09:24:26.303Z,86179.84
2023-05-19T09:25:26.461Z,92487.68
2023-05-19T09:26:26.551Z,101253.12
2023-05-19T09:27:26.682Z,93306.88
2023-05-19T09:28:26.863Z,98385.91
2023-05-19T09:29:27.527Z,101662.72
2023-05-19T09:30:27.156Z,102400
2023-05-19T09:31:27.280Z,56115.2
2023-05-19T09:32:27.581Z,69591.04
2023-05-19T09:33:27.550Z,103464.96
2023-05-19T09:34:27.733Z,103219.2
2023-05-19T09:35:27.826Z,99450.88
2023-05-19T09:36:27.950Z,85688.32
2023-05-19T09:37:28.118Z,98304
2023-05-19T09:38:28.212Z,72007.68
2023-05-19T09:39:28.373Z,84951.04
2023-05-19T09:40:28.520Z,89702.4
2023-05-19T09:41:28.693Z,75980.8
2023-05-19T09:42:28.824Z,48046.08
2023-05-19T09:43:28.980Z,81469.44
2023-05-19T09:44:29.771Z,50995.2
2023-05-19T09:45:29.285Z,94535.68
2023-05-19T09:46:29.470Z,77946.88
2023-05-19T09:47:29.654Z,92078.08
2023-05-19T09:48:29.714Z,91340.8
2023-05-19T09:49:29.823Z,90193.92
2023-05-19T09:50:29.957Z,88309.76
2023-05-19T09:51:30.049Z,84049.92
2023-05-19T09:52:30.180Z,83271.68
2023-05-19T09:53:30.338Z,86507.52
2023-05-19T09:54:30.500Z,87162.88
2023-05-19T09:55:31.076Z,89620.48
2023-05-19T09:56:30.785Z,85934.08
2023-05-19T09:57:30.898Z,84869.12
2023-05-19T09:58:31.046Z,85442.55
2023-05-19T09:59:33.213Z,83804.16
2023-05-19T10:00:31.457Z,86753.28
2023-05-19T10:01:31.475Z,85442.55
2023-05-19T10:02:31.597Z,82903.04
2023-05-19T10:03:31.708Z,83435.52
2023-05-19T10:04:31.969Z,83353.6
2023-05-19T10:05:32.199Z,83476.48
2023-05-19T10:06:32.164Z,83681.28
2023-05-19T10:07:32.311Z,82780.16
2023-05-19T10:08:32.455Z,82370.56
2023-05-19T10:09:32.607Z,82329.6
2023-05-19T10:10:32.714Z,82247.68
2023-05-19T10:11:32.859Z,80814.08
2023-05-19T10:12:32.971Z,80527.36
2023-05-19T10:13:33.115Z,79953.92
2023-05-19T10:14:33.779Z,79380.48
2023-05-19T10:15:38.477Z,79421.44
2023-05-19T10:16:33.577Z,79749.12
2023-05-19T10:17:33.702Z,79052.8
2023-05-19T10:18:33.783Z,78766.08
2023-05-19T10:19:33.994Z,78561.28
2023-05-19T10:20:34.321Z,78438.4
2023-05-19T10:21:34.237Z,79052.8
2023-05-19T10:22:34.379Z,79011.84
2023-05-19T10:23:34.488Z,78356.48
2023-05-19T10:24:34.637Z,75407.36
2023-05-19T10:25:34.936Z,76267.52
2023-05-19T10:26:34.942Z,75694.08
2023-05-19T10:27:35.090Z,75489.28
2023-05-19T10:28:35.235Z,76185.6
2023-05-19T10:29:35.926Z,75571.2
2023-05-19T10:30:35.549Z,75735.04
2023-05-19T10:31:35.742Z,75694.08
2023-05-19T10:32:35.836Z,69222.4
2023-05-19T10:33:35.947Z,74792.96
2023-05-19T10:34:36.101Z,69632
2023-05-19T10:35:36.371Z,71598.08
2023-05-19T10:36:36.399Z,68321.28
2023-05-19T10:37:36.600Z,60661.76
2023-05-19T10:38:36.709Z,59965.44
2023-05-19T10:39:36.805Z,56279.04
2023-05-19T10:40:36.960Z,61562.88
2023-05-19T10:41:37.116Z,70369.28
2023-05-19T10:42:37.270Z,60907.52
2023-05-19T10:43:37.428Z,54476.8
2023-05-19T10:44:38.118Z,62504.96
2023-05-19T10:45:37.725Z,64225.28
2023-05-19T10:46:37.902Z,69263.36
2023-05-19T10:47:37.967Z,69427.2
2023-05-19T10:48:38.092Z,28815.36
2023-05-19T10:49:38.253Z,62791.68
2023-05-19T10:50:38.387Z,63528.96
2023-05-19T10:51:38.499Z,66150.4
2023-05-19T10:52:38.626Z,59269.12
2023-05-19T10:53:38.781Z,55869.44
2023-05-19T10:54:38.943Z,27095.04
2023-05-19T10:55:39.087Z,20060.16
2023-05-19T10:56:39.253Z,17172.48
2023-05-19T10:57:39.416Z,17920
2023-05-19T10:58:39.500Z,66027.52
2023-05-19T10:59:40.231Z,60129.28
2023-05-19T11:01:39.977Z,57098.24
2023-05-19T11:02:40.135Z,63733.76
2023-05-19T11:03:42.699Z,69017.6
2023-05-19T11:04:40.353Z,66355.2
2023-05-19T11:05:40.517Z,65740.8
2023-05-19T11:06:40.673Z,70123.52
2023-05-19T11:07:40.818Z,35205.12
2023-05-19T11:08:40.968Z,72212.48
2023-05-19T11:09:41.223Z,26583.04
2023-05-19T11:10:41.279Z,51322.88
2023-05-19T11:11:41.418Z,72294.4
2023-05-19T11:12:41.572Z,68116.48
2023-05-19T11:13:41.667Z,54845.44
2023-05-19T11:14:42.266Z,47063.04
2023-05-19T11:15:41.880Z,47349.76
2023-05-19T11:16:42.149Z,53616.64
2023-05-19T11:17:42.202Z,56320
2023-05-19T11:18:42.391Z,59555.84
2023-05-19T11:19:42.490Z,58736.64
2023-05-19T11:20:42.685Z,65208.32
2023-05-19T11:21:42.745Z,64593.92
2023-05-19T11:22:42.893Z,61603.84
2023-05-19T11:23:43.093Z,60293.12
2023-05-19T11:24:43.162Z,65536
2023-05-19T11:25:43.334Z,65413.12
2023-05-19T11:26:43.464Z,64430.08
2023-05-19T11:27:43.594Z,60948.48
2023-05-19T11:28:43.745Z,56197.12
2023-05-19T11:29:44.505Z,57958.4
2023-05-19T11:30:44.049Z,45998.08
2023-05-19T11:31:44.232Z,33136.64
2023-05-19T11:32:44.441Z,29593.6
2023-05-19T11:33:44.465Z,27013.12
2023-05-19T11:34:44.630Z,26296.32
2023-05-19T11:35:44.762Z,31395.84
2023-05-19T11:36:44.911Z,36536.32
2023-05-19T11:37:45.067Z,38318.08
2023-05-19T11:38:45.247Z,38666.24
2023-05-19T11:39:45.365Z,36106.24
2023-05-19T11:40:45.504Z,35205.12
2023-05-19T11:41:45.666Z,37396.48
2023-05-19T11:42:45.828Z,37232.64
2023-05-19T11:43:45.974Z,44933.12
2023-05-19T11:44:46.579Z,46448.64
2023-05-19T11:45:46.323Z,47390.72
2023-05-19T11:46:46.431Z,50012.16
2023-05-19T11:48:01.033Z,53043.2
2023-05-19T11:48:46.760Z,53248
2023-05-19T11:49:46.849Z,54804.48
2023-05-19T11:50:46.991Z,55255.04
2023-05-19T11:51:47.123Z,55828.48
2023-05-19T11:52:47.234Z,52060.16
2023-05-19T11:53:47.381Z,45219.84
2023-05-19T11:54:47.556Z,37519.36
2023-05-19T11:55:48.026Z,28712.96
2023-05-19T11:56:47.844Z,23715.84
2023-05-19T11:57:56.123Z,24186.88
2023-05-19T11:58:48.096Z,27791.36
2023-05-19T11:59:48.710Z,29061.12
2023-05-19T12:01:48.544Z,34775.04
2023-05-19T12:02:48.899Z,41205.76
2023-05-19T12:03:48.990Z,40980.48
2023-05-19T12:04:49.067Z,40673.28
2023-05-19T12:05:49.732Z,40796.16
2023-05-19T12:06:49.294Z,42639.36
2023-05-19T12:07:49.455Z,45506.56
2023-05-19T12:08:49.601Z,47800.32
2023-05-19T12:09:49.728Z,49397.76
2023-05-19T12:10:49.866Z,49438.72
2023-05-19T12:11:50.024Z,49766.4
2023-05-19T12:12:50.143Z,49889.28
2023-05-19T12:13:50.278Z,50053.12
2023-05-19T12:14:50.934Z,48906.24
2023-05-19T12:15:50.600Z,46653.44
2023-05-19T12:16:50.816Z,45916.16
2023-05-19T12:17:50.888Z,44318.72
2023-05-19T12:18:51.026Z,43827.2